createdAt,value
2018-06-20T00:00:20.763Z,19.30
2018-06-20T00:02:49.261Z,19.30
2018-06-20T00:05:17.694Z,19.30
2018-06-20T00:07:46.129Z,19.30
2018-06-20T00:10:14.674Z,19.20
2018-06-20T00:12:43.126Z,19.20
2018-06-20T00:15:11.582Z,19.20
2018-06-20T00:17:40.019Z,19.20
2018-06-20T00:20:08.584Z,19.20
2018-06-20T00:22:37.218Z,19.20
2018-06-20T00:27:33.776Z,19.20
2018-06-20T00:32:30.446Z,19.10
2018-06-20T00:34:58.877Z,19.10
2018-06-20T00:37:27.316Z,19.10
2018-06-20T00:39:55.744Z,19.00
2018-06-20T00:42:24.180Z,18.90
2018-06-20T00:44:52.606Z,18.90
2018-06-20T00:47:21.116Z,18.90
2018-06-20T00:49:49.702Z,18.90
2018-06-20T00:52:18.126Z,18.90
2018-06-20T00:54:46.586Z,18.90
2018-06-20T00:57:15.067Z,18.80
2018-06-20T00:59:43.610Z,18.80
2018-06-20T01:02:12.062Z,18.80
2018-06-20T01:04:40.504Z,18.80
2018-06-20T01:07:08.992Z,18.80
2018-06-20T01:09:37.454Z,18.70
2018-06-20T01:12:06.148Z,18.70
2018-06-20T01:14:34.712Z,18.60
2018-06-20T01:17:03.157Z,18.60
2018-06-20T01:19:31.678Z,18.60
2018-06-20T01:22:00.124Z,18.70
2018-06-20T01:24:28.570Z,18.70
2018-06-20T01:26:57.119Z,18.70
2018-06-20T01:31:53.802Z,18.60
2018-06-20T01:34:22.286Z,18.60
2018-06-20T01:36:50.852Z,18.60
2018-06-20T01:39:19.270Z,18.60
2018-06-20T01:41:47.720Z,18.60
2018-06-20T01:44:16.162Z,18.60
2018-06-20T01:46:44.625Z,18.60
2018-06-20T01:49:13.068Z,18.60
2018-06-20T01:51:41.515Z,18.60
2018-06-20T01:54:10.027Z,18.60
2018-06-20T01:56:38.494Z,18.60
2018-06-20T01:59:06.938Z,18.60
2018-06-20T02:01:35.380Z,18.50
2018-06-20T02:04:03.852Z,18.50
2018-06-20T02:06:32.276Z,18.60
2018-06-20T02:09:00.712Z,18.60
2018-06-20T02:11:30.860Z,18.60
2018-06-20T02:13:59.506Z,18.60
2018-06-20T02:16:27.934Z,18.60
2018-06-20T02:18:56.414Z,18.60
2018-06-20T02:21:24.857Z,18.60
2018-06-20T02:23:53.424Z,18.60
2018-06-20T02:26:21.898Z,18.50
2018-06-20T02:28:50.364Z,18.50
2018-06-20T02:31:18.996Z,18.50
2018-06-20T02:33:47.616Z,18.40
2018-06-20T02:36:21.526Z,18.40
2018-06-20T02:38:50.100Z,18.30
2018-06-20T02:41:18.522Z,18.30
2018-06-20T02:43:47.020Z,18.30
2018-06-20T02:46:15.458Z,18.30
2018-06-20T02:48:43.901Z,18.30
2018-06-20T02:51:12.329Z,18.30
2018-06-20T02:53:40.815Z,18.30
2018-06-20T02:56:09.233Z,18.30
2018-06-20T02:58:37.659Z,18.20
2018-06-20T03:01:06.845Z,18.20
2018-06-20T03:03:35.321Z,18.20
2018-06-20T03:06:04.197Z,18.20
2018-06-20T03:08:33.010Z,18.30
2018-06-20T03:11:01.553Z,18.20
2018-06-20T03:13:29.978Z,18.20
2018-06-20T03:15:58.438Z,18.20
2018-06-20T03:18:27.252Z,18.20
2018-06-20T03:20:55.717Z,18.10
2018-06-20T03:23:24.319Z,18.10
2018-06-20T03:25:52.795Z,18.10
2018-06-20T03:28:21.225Z,18.10
2018-06-20T03:30:49.647Z,18.00
2018-06-20T03:33:18.091Z,18.10
2018-06-20T03:38:14.793Z,18.10
2018-06-20T03:40:43.227Z,18.10
2018-06-20T03:43:11.795Z,18.10
2018-06-20T03:45:40.255Z,18.00
2018-06-20T03:48:08.867Z,18.00
2018-06-20T03:50:37.307Z,18.00
2018-06-20T03:53:05.854Z,18.00
2018-06-20T03:55:34.292Z,18.00
2018-06-20T03:58:02.833Z,18.00
2018-06-20T04:02:59.459Z,18.10
2018-06-20T04:05:29.897Z,18.10
2018-06-20T04:07:59.135Z,18.10
2018-06-20T04:10:27.923Z,18.10
2018-06-20T04:12:56.383Z,18.00
2018-06-20T04:15:24.856Z,18.10
2018-06-20T04:17:53.314Z,18.10
2018-06-20T04:20:21.761Z,18.10
2018-06-20T04:22:50.293Z,18.10
2018-06-20T04:27:46.900Z,18.10
2018-06-20T04:30:15.356Z,18.10
2018-06-20T04:32:43.938Z,18.10
2018-06-20T04:35:12.509Z,18.10
2018-06-20T04:37:40.976Z,18.10
2018-06-20T04:40:09.408Z,18.10
2018-06-20T04:42:37.865Z,18.10
2018-06-20T04:45:06.326Z,18.10
2018-06-20T04:47:35.033Z,18.10
2018-06-20T04:52:31.702Z,18.20
2018-06-20T04:55:00.244Z,18.20
2018-06-20T04:57:28.686Z,18.20
2018-06-20T04:59:57.139Z,18.20
2018-06-20T05:02:25.680Z,18.20
2018-06-20T05:04:55.090Z,18.20
2018-06-20T05:07:23.587Z,18.20
2018-06-20T05:09:52.030Z,18.20
2018-06-20T05:12:20.446Z,18.30
2018-06-20T05:14:48.955Z,18.30
2018-06-20T05:17:17.400Z,18.30
2018-06-20T05:19:45.955Z,18.30
2018-06-20T05:22:14.412Z,18.30
2018-06-20T05:24:42.856Z,18.30
2018-06-20T05:27:11.305Z,18.30
2018-06-20T05:29:39.822Z,18.30
2018-06-20T05:32:08.260Z,18.30
2018-06-20T05:34:36.998Z,18.40
2018-06-20T05:37:05.616Z,18.40
2018-06-20T05:39:34.169Z,18.30
2018-06-20T05:42:02.610Z,18.40
2018-06-20T05:44:31.350Z,18.40
2018-06-20T05:46:59.793Z,18.40
2018-06-20T05:49:28.228Z,18.40
2018-06-20T05:51:56.712Z,18.40
2018-06-20T05:54:25.145Z,18.50
2018-06-20T05:56:53.574Z,18.50
2018-06-20T05:59:22.041Z,18.50
2018-06-20T06:01:50.533Z,18.50
2018-06-20T06:04:18.977Z,18.50
2018-06-20T06:06:47.452Z,18.60
2018-06-20T06:09:15.901Z,18.60
2018-06-20T06:11:44.349Z,18.60
2018-06-20T06:14:12.821Z,18.60
2018-06-20T06:16:41.550Z,18.70
2018-06-20T06:19:10.033Z,18.80
2018-06-20T06:21:38.560Z,18.80
2018-06-20T06:26:35.226Z,18.80
2018-06-20T06:31:32.166Z,18.90
2018-06-20T06:34:00.630Z,18.90
2018-06-20T06:36:29.283Z,18.90
2018-06-20T06:38:57.745Z,18.90
2018-06-20T06:41:26.309Z,19.00
2018-06-20T06:43:54.872Z,19.00
2018-06-20T06:46:23.303Z,19.10
2018-06-20T06:48:51.767Z,19.10
2018-06-20T06:51:20.241Z,19.10
2018-06-20T06:56:16.914Z,19.10
2018-06-20T06:58:45.398Z,19.10
2018-06-20T07:01:13.961Z,19.10
2018-06-20T07:03:42.542Z,19.20
2018-06-20T07:06:11.016Z,19.20
2018-06-20T07:08:39.484Z,19.40
2018-06-20T07:11:08.041Z,19.50
2018-06-20T07:13:36.515Z,19.50
2018-06-20T07:16:05.004Z,19.50
2018-06-20T07:18:33.450Z,19.50
2018-06-20T07:21:01.892Z,19.50
2018-06-20T07:23:30.339Z,19.50
2018-06-20T07:25:58.922Z,19.50
2018-06-20T07:28:27.380Z,19.50
2018-06-20T07:30:55.983Z,19.70
2018-06-20T07:33:24.475Z,19.80
2018-06-20T07:35:53.019Z,19.90
2018-06-20T07:38:21.578Z,20.10
2018-06-20T07:40:50.069Z,20.20
2018-06-20T07:45:46.716Z,20.20
2018-06-20T07:48:15.262Z,20.10
2018-06-20T07:50:43.861Z,20.10
2018-06-20T07:53:12.417Z,20.20
2018-06-20T07:55:40.870Z,20.40
2018-06-20T07:58:09.544Z,20.60
2018-06-20T08:00:43.411Z,20.70
2018-06-20T08:03:18.597Z,20.60
2018-06-20T08:05:52.446Z,20.50
2018-06-20T08:08:26.127Z,20.40
2018-06-20T08:11:00.055Z,20.40
2018-06-20T08:13:33.875Z,20.40
2018-06-20T08:16:07.633Z,20.40
2018-06-20T08:23:38.885Z,20.50
2018-06-20T08:26:07.342Z,20.60
2018-06-20T08:28:35.830Z,20.70
2018-06-20T08:31:04.298Z,20.80
2018-06-20T08:33:32.820Z,20.80
2018-06-20T08:36:01.261Z,20.90
2018-06-20T08:38:29.704Z,21.00
2018-06-20T08:43:26.370Z,21.40
2018-06-20T08:45:54.828Z,21.50
2018-06-20T08:48:23.309Z,21.60
2018-06-20T08:50:51.843Z,21.80
2018-06-20T08:53:20.385Z,21.80
2018-06-20T08:55:48.832Z,21.80
2018-06-20T08:58:17.390Z,21.80
2018-06-20T09:00:51.210Z,21.90
2018-06-20T09:03:19.714Z,22.10
2018-06-20T09:05:53.449Z,22.20
2018-06-20T09:11:01.004Z,22.40
2018-06-20T09:13:34.885Z,22.90
2018-06-20T09:16:08.712Z,23.40
2018-06-20T09:18:42.517Z,23.80
2018-06-20T09:21:11.094Z,23.90
2018-06-20T09:23:39.546Z,24.50
2018-06-20T09:26:08.056Z,24.90
2018-06-20T09:31:04.773Z,24.50
2018-06-20T09:33:33.233Z,24.80
2018-06-20T09:36:01.682Z,25.00
2018-06-20T09:38:30.157Z,25.40
2018-06-20T09:40:58.648Z,25.90
2018-06-20T09:43:27.179Z,26.20
2018-06-20T09:45:55.655Z,26.10
2018-06-20T09:48:33.323Z,26.30
2018-06-20T09:51:02.667Z,26.60
2018-06-20T09:53:31.137Z,26.30
2018-06-20T09:55:59.596Z,25.60
2018-06-20T09:58:28.073Z,25.20
2018-06-20T10:01:01.875Z,25.40
2018-06-20T10:03:35.821Z,25.40
2018-06-20T10:06:09.833Z,25.70
2018-06-20T10:08:43.668Z,26.30
2018-06-20T10:11:17.535Z,26.80
2018-06-20T10:13:48.042Z,26.40
2018-06-20T10:16:16.641Z,26.00
2018-06-20T10:18:45.143Z,26.50
2018-06-20T10:21:13.777Z,26.60
2018-06-20T10:23:42.218Z,26.80
2018-06-20T10:26:10.688Z,26.80
2018-06-20T10:28:39.230Z,27.10
2018-06-20T10:31:07.662Z,27.50
2018-06-20T10:33:36.179Z,27.80
2018-06-20T10:36:04.710Z,28.00
2018-06-20T10:38:33.150Z,28.10
2018-06-20T10:43:29.750Z,27.90
2018-06-20T10:46:03.703Z,28.00
2018-06-20T10:48:32.212Z,28.10
2018-06-20T10:51:00.682Z,28.50
2018-06-20T10:53:29.150Z,28.20
2018-06-20T10:55:57.631Z,28.10
2018-06-20T10:58:31.410Z,28.80
2018-06-20T11:01:05.107Z,29.30
2018-06-20T11:03:38.870Z,29.30
2018-06-20T11:06:12.725Z,29.10
2018-06-20T11:08:46.508Z,29.50
2018-06-20T11:11:20.182Z,29.90
2018-06-20T11:13:48.678Z,29.50
2018-06-20T11:16:17.188Z,29.20
2018-06-20T11:18:48.024Z,29.50
2018-06-20T11:21:16.521Z,29.80
2018-06-20T11:23:45.030Z,29.80
2018-06-20T11:26:13.559Z,29.80
2018-06-20T11:28:42.024Z,29.40
2018-06-20T11:31:10.528Z,29.40
2018-06-20T11:33:39.006Z,29.40
2018-06-20T11:36:07.540Z,29.20
2018-06-20T11:38:36.019Z,29.20
2018-06-20T11:41:04.547Z,29.50
2018-06-20T11:43:33.050Z,30.00
2018-06-20T11:46:06.874Z,29.60
2018-06-20T11:48:35.396Z,29.50
2018-06-20T11:51:03.924Z,30.00
2018-06-20T11:53:32.417Z,30.50
2018-06-20T11:56:00.930Z,29.90
2018-06-20T11:58:34.670Z,29.80
2018-06-20T12:01:08.499Z,29.90
2018-06-20T12:03:42.309Z,29.60
2018-06-20T12:06:16.188Z,29.50
2018-06-20T12:08:50.197Z,29.90
2018-06-20T12:11:23.864Z,30.60
2018-06-20T12:13:57.714Z,30.70
2018-06-20T12:16:26.919Z,30.70
2018-06-20T12:19:00.560Z,30.10
2018-06-20T12:21:34.339Z,29.80
2018-06-20T12:24:08.188Z,29.40
2018-06-20T12:26:42.084Z,29.40
2018-06-20T12:29:16.061Z,29.60
2018-06-20T12:31:49.721Z,30.20
2018-06-20T12:34:23.625Z,30.70
2018-06-20T12:36:57.501Z,30.30
2018-06-20T12:39:25.175Z,30.60
2018-06-20T12:41:59.005Z,31.20
2018-06-20T12:44:35.183Z,31.40
2018-06-20T12:49:49.106Z,30.80
2018-06-20T12:52:17.579Z,31.20
2018-06-20T12:54:46.045Z,31.40
2018-06-20T12:57:14.529Z,31.10
2018-06-20T12:59:42.981Z,30.70
2018-06-20T13:04:39.585Z,31.20
2018-06-20T13:07:08.030Z,31.40
2018-06-20T13:09:36.485Z,31.20
2018-06-20T13:12:04.946Z,31.00
2018-06-20T13:14:33.498Z,31.40
2018-06-20T13:17:01.918Z,31.70
2018-06-20T13:19:30.425Z,31.70
2018-06-20T13:21:58.895Z,31.10
2018-06-20T13:24:27.376Z,31.00
2018-06-20T13:26:55.919Z,30.80
2018-06-20T13:29:24.343Z,30.80
2018-06-20T13:31:58.230Z,31.20
2018-06-20T13:34:32.063Z,31.10
2018-06-20T13:38:05.845Z,30.90
2018-06-20T13:40:39.815Z,30.50
2018-06-20T13:43:13.495Z,30.60
2018-06-20T13:45:47.311Z,30.70
2018-06-20T13:48:21.284Z,30.80
2018-06-20T13:50:49.705Z,31.00
2018-06-20T13:53:18.148Z,30.90
2018-06-20T13:55:46.653Z,30.90
2018-06-20T13:58:16.068Z,30.70
2018-06-20T14:00:44.539Z,30.90
2018-06-20T14:03:13.055Z,31.10
2018-06-20T14:05:41.559Z,31.60
2018-06-20T14:08:10.122Z,31.80
2018-06-20T14:10:38.583Z,31.90
2018-06-20T14:13:07.053Z,31.20
2018-06-20T14:15:35.518Z,30.80
2018-06-20T14:18:04.050Z,30.90
2018-06-20T14:20:37.951Z,30.90
2018-06-20T14:23:06.481Z,30.90
2018-06-20T14:25:35.033Z,30.50
2018-06-20T14:28:03.635Z,30.60
2018-06-20T14:30:37.538Z,30.40
2018-06-20T14:33:11.401Z,30.60
2018-06-20T14:35:45.270Z,30.50
2018-06-20T14:38:19.032Z,30.40
2018-06-20T14:40:52.701Z,30.70
2018-06-20T14:43:26.412Z,30.90
2018-06-20T14:46:00.299Z,30.90
2018-06-20T14:48:29.201Z,31.40
2018-06-20T14:50:57.751Z,31.40
2018-06-20T14:53:26.246Z,31.40
2018-06-20T14:55:54.741Z,31.10
2018-06-20T14:58:23.184Z,30.50
2018-06-20T15:00:51.689Z,30.10
2018-06-20T15:03:20.154Z,30.00
2018-06-20T15:05:48.639Z,30.20
2018-06-20T15:08:17.416Z,30.00
2018-06-20T15:10:46.423Z,30.00
2018-06-20T15:13:14.926Z,30.00
2018-06-20T15:15:43.434Z,29.70
2018-06-20T15:18:11.942Z,29.40
2018-06-20T15:20:40.392Z,29.20
2018-06-20T15:23:08.908Z,29.10
2018-06-20T15:25:37.384Z,29.00
2018-06-20T15:28:11.314Z,29.00
2018-06-20T15:30:45.203Z,29.10
2018-06-20T15:33:19.034Z,29.20
2018-06-20T15:35:52.821Z,29.00
2018-06-20T15:38:24.803Z,28.90
2018-06-20T15:40:53.322Z,28.90
2018-06-20T15:43:21.784Z,28.70
2018-06-20T15:45:50.272Z,28.40
2018-06-20T15:48:18.778Z,28.20
2018-06-20T15:50:47.359Z,28.30
2018-06-20T15:53:15.909Z,28.20
2018-06-20T15:55:44.356Z,28.20
2018-06-20T15:58:12.815Z,28.00
2018-06-20T16:00:41.305Z,28.10
2018-06-20T16:03:09.865Z,28.20
2018-06-20T16:05:38.330Z,28.30
2018-06-20T16:08:07.392Z,28.40
2018-06-20T16:10:35.869Z,28.20
2018-06-20T16:13:04.373Z,28.00
2018-06-20T16:15:32.847Z,27.90
2018-06-20T16:18:01.306Z,27.90
2018-06-20T16:20:35.179Z,28.00
2018-06-20T16:24:08.663Z,27.90
2018-06-20T16:26:42.552Z,27.90
2018-06-20T16:29:16.408Z,28.00
2018-06-20T16:31:44.964Z,27.80
2018-06-20T16:34:13.522Z,27.80
2018-06-20T16:36:41.999Z,27.70
2018-06-20T16:39:10.599Z,27.60
2018-06-20T16:41:39.069Z,27.50
2018-06-20T16:44:07.618Z,27.60
2018-06-20T16:46:36.122Z,27.60
2018-06-20T16:49:04.560Z,27.70
2018-06-20T16:51:33.064Z,27.60
2018-06-20T16:56:29.876Z,27.40
2018-06-20T16:58:58.345Z,27.40
2018-06-20T17:01:32.264Z,27.30
2018-06-20T17:04:00.839Z,27.30
2018-06-20T17:06:29.292Z,27.30
2018-06-20T17:08:57.813Z,27.30
2018-06-20T17:11:26.395Z,27.30
2018-06-20T17:14:00.268Z,27.30
2018-06-20T17:17:36.122Z,27.30
2018-06-20T17:20:10.091Z,27.20
2018-06-20T17:22:43.956Z,26.90
2018-06-20T17:25:15.046Z,26.70
2018-06-20T17:27:43.828Z,26.80
2018-06-20T17:30:12.552Z,26.80
2018-06-20T17:32:41.035Z,26.90
2018-06-20T17:35:09.507Z,26.90
2018-06-20T17:37:37.951Z,26.80
2018-06-20T17:40:06.596Z,26.70
2018-06-20T17:42:35.070Z,26.60
2018-06-20T17:45:03.601Z,26.60
2018-06-20T17:47:32.049Z,26.60
2018-06-20T17:50:00.564Z,26.60
2018-06-20T17:52:29.072Z,26.60
2018-06-20T17:54:57.642Z,26.50
2018-06-20T17:57:26.178Z,26.50
2018-06-20T17:59:54.655Z,26.40
2018-06-20T18:02:23.114Z,26.40
2018-06-20T18:04:56.946Z,26.40
2018-06-20T18:07:30.762Z,26.30
2018-06-20T18:10:04.576Z,26.40
2018-06-20T18:12:37.412Z,26.30
2018-06-20T18:15:12.072Z,26.30
2018-06-20T18:20:09.008Z,26.30
2018-06-20T18:22:37.520Z,26.30
2018-06-20T18:27:34.269Z,26.20
2018-06-20T18:30:02.800Z,26.20
2018-06-20T18:32:31.342Z,26.10
2018-06-20T18:34:59.817Z,26.00
2018-06-20T18:37:28.308Z,26.00
2018-06-20T18:40:12.977Z,25.90
2018-06-20T18:42:41.709Z,25.60
2018-06-20T18:45:10.270Z,25.80
2018-06-20T18:48:48.086Z,25.80
2018-06-20T18:51:16.553Z,25.70
2018-06-20T18:53:45.060Z,25.50
2018-06-20T18:56:13.541Z,25.50
2018-06-20T18:58:47.351Z,25.50
2018-06-20T19:01:21.281Z,25.40
2018-06-20T19:03:54.981Z,25.40
2018-06-20T19:06:28.821Z,25.40
2018-06-20T19:09:00.644Z,25.30
2018-06-20T19:11:29.141Z,25.30
2018-06-20T19:13:57.608Z,25.30
2018-06-20T19:16:26.269Z,25.20
2018-06-20T19:18:54.947Z,25.20
2018-06-20T19:21:23.571Z,25.10
2018-06-20T19:23:52.137Z,25.10
2018-06-20T19:26:20.670Z,25.00
2018-06-20T19:28:49.201Z,25.00
2018-06-20T19:31:17.661Z,24.90
2018-06-20T19:36:15.571Z,24.70
2018-06-20T19:38:44.121Z,24.70
2018-06-20T19:41:12.636Z,24.60
2018-06-20T19:44:45.783Z,24.60
2018-06-20T19:47:14.241Z,24.40
2018-06-20T19:49:42.835Z,24.30
2018-06-20T19:52:11.700Z,24.20
2018-06-20T19:54:40.288Z,24.00
2018-06-20T19:57:08.979Z,23.90
2018-06-20T19:59:37.563Z,23.80
2018-06-20T20:02:06.099Z,23.70
2018-06-20T20:07:02.882Z,23.50
2018-06-20T20:09:31.391Z,23.40
2018-06-20T20:11:59.821Z,23.40
2018-06-20T20:14:28.302Z,23.30
2018-06-20T20:16:56.782Z,23.20
2018-06-20T20:19:25.262Z,23.10
2018-06-20T20:21:53.735Z,23.10
2018-06-20T20:24:22.371Z,23.00
2018-06-20T20:26:50.927Z,22.90
2018-06-20T20:29:19.571Z,22.80
2018-06-20T20:31:48.047Z,22.80
2018-06-20T20:34:16.689Z,22.70
2018-06-20T20:36:45.221Z,22.60
2018-06-20T20:39:13.660Z,22.60
2018-06-20T20:41:42.138Z,22.50
2018-06-20T20:44:10.690Z,22.40
2018-06-20T20:46:39.322Z,22.30
2018-06-20T20:49:07.765Z,22.30
2018-06-20T20:51:36.333Z,22.20
2018-06-20T20:54:05.079Z,22.10
2018-06-20T20:56:33.568Z,22.10
2018-06-20T20:59:02.164Z,22.00
2018-06-20T21:01:30.696Z,22.00
2018-06-20T21:03:59.173Z,21.90
2018-06-20T21:06:27.749Z,21.90
2018-06-20T21:13:52.510Z,21.70
2018-06-20T21:16:21.132Z,21.70
2018-06-20T21:18:49.625Z,21.60
2018-06-20T21:21:18.161Z,21.60
2018-06-20T21:23:46.623Z,21.50
2018-06-20T21:26:15.187Z,21.50
2018-06-20T21:28:43.688Z,21.50
2018-06-20T21:33:40.319Z,21.30
2018-06-20T21:36:08.947Z,21.30
2018-06-20T21:38:37.499Z,21.30
2018-06-20T21:41:05.997Z,21.20
2018-06-20T21:43:34.429Z,21.20
2018-06-20T21:46:02.870Z,21.10
2018-06-20T21:48:31.430Z,21.10
2018-06-20T21:53:28.140Z,21.00
2018-06-20T21:55:56.663Z,21.00
2018-06-20T22:00:53.306Z,20.90
2018-06-20T22:03:21.745Z,20.80
2018-06-20T22:05:50.254Z,20.80
2018-06-20T22:08:18.860Z,20.80
2018-06-20T22:10:47.384Z,20.70
2018-06-20T22:13:15.820Z,20.70
2018-06-20T22:15:44.314Z,20.60
2018-06-20T22:18:12.869Z,20.60
2018-06-20T22:20:41.316Z,20.50
2018-06-20T22:23:09.899Z,20.50
2018-06-20T22:25:38.349Z,20.40
2018-06-20T22:28:06.793Z,20.40
2018-06-20T22:30:35.245Z,20.30
2018-06-20T22:33:03.740Z,20.20
2018-06-20T22:35:32.587Z,20.20
2018-06-20T22:38:01.159Z,20.10
2018-06-20T22:40:29.717Z,20.10
2018-06-20T22:42:58.248Z,20.00
2018-06-20T22:47:54.995Z,20.00
2018-06-20T22:50:23.740Z,20.00
2018-06-20T22:52:52.378Z,19.90
2018-06-20T22:55:20.877Z,19.90
2018-06-20T22:57:49.420Z,19.90
2018-06-20T23:00:17.961Z,19.80
2018-06-20T23:02:46.589Z,19.80
2018-06-20T23:05:15.165Z,19.80
2018-06-20T23:07:43.897Z,19.80
2018-06-20T23:10:12.426Z,19.70
2018-06-20T23:12:40.936Z,19.60
2018-06-20T23:15:09.456Z,19.70
2018-06-20T23:17:38.012Z,19.60
2018-06-20T23:20:06.596Z,19.60
2018-06-20T23:22:35.119Z,19.60
2018-06-20T23:25:03.777Z,19.60
2018-06-20T23:27:32.407Z,19.50
2018-06-20T23:30:00.993Z,19.50
2018-06-20T23:32:29.511Z,19.40
2018-06-20T23:34:58.017Z,19.40
2018-06-20T23:37:26.799Z,19.30
2018-06-20T23:39:55.320Z,19.30
2018-06-20T23:42:23.847Z,19.20
2018-06-20T23:44:52.377Z,19.20
2018-06-20T23:47:20.888Z,19.10
2018-06-20T23:49:49.371Z,19.10
2018-06-20T23:52:17.993Z,19.00
2018-06-20T23:54:46.558Z,19.00
2018-06-20T23:57:15.123Z,18.90
2018-06-20T23:59:43.726Z,18.90
